createdAt,value
2023-04-27T00:02:20.423Z,7.23
2023-04-27T00:04:48.255Z,7.20
2023-04-27T00:07:15.890Z,7.19
2023-04-27T00:09:42.984Z,7.26
2023-04-27T00:12:10.277Z,7.19
2023-04-27T00:14:37.262Z,7.16
2023-04-27T00:17:05.775Z,7.16
2023-04-27T00:19:32.830Z,7.20
2023-04-27T00:22:00.631Z,7.21
2023-04-27T00:24:27.724Z,7.16
2023-04-27T00:26:55.098Z,7.12
2023-04-27T00:29:22.444Z,7.12
2023-04-27T00:31:50.025Z,7.15
2023-04-27T00:34:19.721Z,7.16
2023-04-27T00:36:47.131Z,7.15
2023-04-27T00:39:14.349Z,7.14
2023-04-27T00:41:41.902Z,7.14
2023-04-27T00:44:08.998Z,7.18
2023-04-27T00:46:37.126Z,7.12
2023-04-27T00:49:07.628Z,7.11
2023-04-27T00:51:35.584Z,7.10
2023-04-27T00:54:02.747Z,7.10
2023-04-27T00:56:30.204Z,7.10
2023-04-27T00:58:57.226Z,7.15
2023-04-27T01:01:24.602Z,7.10
2023-04-27T01:03:51.917Z,7.09
2023-04-27T01:06:19.567Z,7.10
2023-04-27T01:08:47.097Z,7.12
2023-04-27T01:11:14.556Z,7.10
2023-04-27T01:13:41.754Z,7.13
2023-04-27T01:16:09.206Z,7.12
2023-04-27T01:18:36.301Z,7.11
2023-04-27T01:21:06.663Z,7.10
2023-04-27T01:23:34.640Z,7.10
2023-04-27T01:26:02.977Z,7.10
2023-04-27T01:28:30.202Z,7.12
2023-04-27T01:30:57.523Z,7.10
2023-04-27T01:33:24.640Z,7.16
2023-04-27T01:35:52.645Z,7.15
2023-04-27T01:38:19.616Z,7.14
2023-04-27T01:40:46.912Z,7.08
2023-04-27T01:43:14.455Z,7.04
2023-04-27T01:45:41.845Z,7.00
2023-04-27T01:48:08.920Z,6.96
2023-04-27T01:50:36.465Z,6.93
2023-04-27T01:53:03.656Z,6.91
2023-04-27T01:55:31.245Z,6.91
2023-04-27T01:57:58.986Z,6.87
2023-04-27T02:00:26.371Z,6.85
2023-04-27T02:02:55.530Z,6.85
2023-04-27T02:05:24.093Z,6.81
2023-04-27T02:07:51.301Z,6.76
2023-04-27T02:10:18.855Z,6.77
2023-04-27T02:12:45.971Z,6.78
2023-04-27T02:15:13.312Z,6.75
2023-04-27T02:17:41.382Z,6.71
2023-04-27T02:20:10.936Z,6.76
2023-04-27T02:22:44.565Z,6.77
2023-04-27T02:25:12.466Z,6.78
2023-04-27T02:27:40.962Z,6.78
2023-04-27T02:30:11.044Z,6.78
2023-04-27T02:32:39.071Z,6.77
2023-04-27T02:35:08.123Z,6.78
2023-04-27T02:37:35.557Z,6.81
2023-04-27T02:40:04.479Z,6.81
2023-04-27T02:42:31.953Z,6.81
2023-04-27T02:44:59.414Z,6.79
2023-04-27T02:47:27.453Z,6.79
2023-04-27T02:49:54.864Z,6.75
2023-04-27T02:52:22.026Z,6.75
2023-04-27T02:54:49.392Z,6.72
2023-04-27T02:57:16.471Z,6.70
2023-04-27T02:59:43.810Z,6.68
2023-04-27T03:02:10.893Z,6.67
2023-04-27T03:04:38.548Z,6.67
2023-04-27T03:07:05.793Z,6.67
2023-04-27T03:09:33.390Z,6.67
2023-04-27T03:12:00.638Z,6.65
2023-04-27T03:14:28.691Z,6.64
2023-04-27T03:16:57.472Z,6.66
2023-04-27T03:19:24.885Z,6.60
2023-04-27T03:21:51.936Z,6.57
2023-04-27T03:24:19.394Z,6.60
2023-04-27T03:26:46.637Z,6.54
2023-04-27T03:29:14.286Z,6.54
2023-04-27T03:31:41.553Z,6.55
2023-04-27T03:34:09.046Z,6.66
2023-04-27T03:36:36.117Z,6.85
2023-04-27T03:39:03.838Z,7.06
2023-04-27T03:41:30.884Z,7.12
2023-04-27T03:43:58.761Z,6.98
2023-04-27T03:46:26.400Z,6.91
2023-04-27T03:49:01.771Z,6.82
2023-04-27T03:51:34.332Z,6.75
2023-04-27T03:54:01.734Z,6.69
2023-04-27T03:56:28.799Z,6.65
2023-04-27T03:58:56.198Z,6.62
2023-04-27T04:01:27.048Z,6.61
2023-04-27T04:04:09.327Z,6.67
2023-04-27T04:06:51.294Z,6.81
2023-04-27T04:09:19.167Z,7.03
2023-04-27T04:11:46.375Z,7.15
2023-04-27T04:14:18.839Z,7.17
2023-04-27T04:16:47.841Z,7.17
2023-04-27T04:19:17.066Z,7.18
2023-04-27T04:21:44.324Z,7.52
2023-04-27T04:24:16.935Z,8.08
2023-04-27T04:26:49.712Z,8.54
2023-04-27T04:29:17.336Z,8.86
2023-04-27T04:31:44.445Z,9.18
2023-04-27T04:34:12.165Z,9.47
2023-04-27T04:36:39.575Z,9.75
2023-04-27T04:39:08.956Z,9.94
2023-04-27T04:41:37.298Z,10.25
2023-04-27T04:44:05.589Z,10.34
2023-04-27T04:46:33.751Z,10.46
2023-04-27T04:49:02.602Z,10.68
2023-04-27T04:51:32.093Z,10.91
2023-04-27T04:54:16.051Z,11.19
2023-04-27T04:56:43.896Z,11.43
2023-04-27T04:59:17.098Z,11.42
2023-04-27T05:02:00.003Z,11.67
2023-04-27T05:04:27.930Z,11.68
2023-04-27T05:06:54.986Z,11.76
2023-04-27T05:09:24.132Z,11.70
2023-04-27T05:11:54.110Z,11.75
2023-04-27T05:14:23.640Z,11.64
2023-04-27T05:16:51.728Z,11.83
2023-04-27T05:19:20.800Z,12.01
2023-04-27T05:21:47.782Z,12.09
2023-04-27T05:24:15.338Z,11.75
2023-04-27T05:26:43.308Z,11.32
2023-04-27T05:29:29.234Z,10.82
2023-04-27T05:31:57.598Z,10.35
2023-04-27T05:34:24.681Z,10.11
2023-04-27T05:36:52.094Z,9.93
2023-04-27T05:39:19.153Z,9.66
2023-04-27T05:41:46.658Z,9.35
2023-04-27T05:44:14.256Z,9.40
2023-04-27T05:46:41.656Z,9.27
2023-04-27T05:49:08.818Z,9.27
2023-04-27T05:51:38.485Z,9.28
2023-04-27T05:54:05.677Z,9.24
2023-04-27T05:56:33.122Z,9.25
2023-04-27T06:01:42.966Z,9.31
2023-04-27T06:04:11.889Z,9.35
2023-04-27T06:06:41.860Z,9.40
2023-04-27T06:09:08.862Z,9.34
2023-04-27T06:11:36.306Z,9.31
2023-04-27T06:14:04.222Z,9.24
2023-04-27T06:16:36.737Z,9.23
2023-04-27T06:19:09.145Z,9.17
2023-04-27T06:21:37.005Z,9.09
2023-04-27T06:24:04.102Z,9.06
2023-04-27T06:26:39.827Z,9.05
2023-04-27T06:29:21.753Z,9.11
2023-04-27T06:31:49.947Z,9.34
2023-04-27T06:34:17.511Z,9.52
2023-04-27T06:36:47.506Z,9.61
2023-04-27T06:39:23.785Z,9.61
2023-04-27T06:44:37.645Z,9.94
2023-04-27T06:47:05.330Z,9.96
2023-04-27T06:49:32.504Z,10.13
2023-04-27T06:52:03.882Z,10.25
2023-04-27T06:54:38.601Z,10.22
2023-04-27T06:57:06.957Z,10.15
2023-04-27T06:59:39.137Z,10.09
2023-04-27T07:02:08.622Z,10.01
2023-04-27T07:04:36.836Z,10.07
2023-04-27T07:07:04.460Z,10.21
2023-04-27T07:09:31.851Z,10.40
2023-04-27T07:12:01.875Z,10.37
2023-04-27T07:14:29.577Z,10.26
2023-04-27T07:16:56.966Z,10.29
2023-04-27T07:19:24.096Z,10.36
2023-04-27T07:21:52.104Z,10.42
2023-04-27T07:24:30.487Z,10.42
2023-04-27T07:27:01.117Z,10.38
2023-04-27T07:32:25.611Z,10.12
2023-04-27T07:34:54.419Z,10.08
2023-04-27T07:37:24.342Z,10.02
2023-04-27T07:40:17.185Z,10.20
2023-04-27T07:42:48.624Z,10.43
2023-04-27T07:45:41.943Z,10.48
2023-04-27T07:48:10.014Z,10.42
2023-04-27T07:50:38.162Z,10.61
2023-04-27T07:53:08.565Z,10.64
2023-04-27T07:55:44.053Z,10.66
2023-04-27T07:58:14.083Z,10.55
2023-04-27T08:00:41.014Z,10.68
2023-04-27T08:03:09.388Z,10.86
2023-04-27T08:05:36.882Z,11.13
2023-04-27T08:08:04.876Z,11.20
2023-04-27T08:10:32.232Z,11.21
2023-04-27T08:12:59.705Z,11.43
2023-04-27T08:15:27.217Z,11.34
2023-04-27T08:17:54.531Z,11.43
2023-04-27T08:20:21.866Z,11.19
2023-04-27T08:22:51.525Z,11.35
2023-04-27T08:25:18.781Z,11.28
2023-04-27T08:27:46.382Z,11.13
2023-04-27T08:30:15.218Z,11.11
2023-04-27T08:32:45.693Z,11.15
2023-04-27T08:35:13.461Z,11.21
2023-04-27T08:37:41.879Z,11.18
2023-04-27T08:40:10.068Z,11.06
2023-04-27T08:42:40.651Z,11.70
2023-04-27T08:45:09.144Z,11.61
2023-04-27T08:47:43.176Z,11.44
2023-04-27T08:50:13.471Z,11.40
2023-04-27T08:52:48.486Z,11.57
2023-04-27T08:55:18.113Z,11.92
2023-04-27T08:58:06.683Z,11.81
2023-04-27T09:00:41.536Z,11.70
2023-04-27T09:06:08.686Z,11.63
2023-04-27T09:08:49.526Z,11.60
2023-04-27T09:11:38.266Z,11.56
2023-04-27T09:14:19.822Z,11.54
2023-04-27T09:16:59.528Z,11.29
2023-04-27T09:19:28.695Z,11.10
2023-04-27T09:22:05.083Z,11.04
2023-04-27T09:24:33.830Z,11.09
2023-04-27T09:27:01.982Z,11.23
2023-04-27T09:32:29.813Z,11.31
2023-04-27T09:35:01.162Z,11.34
2023-04-27T09:37:30.046Z,11.31
2023-04-27T09:39:57.422Z,11.24
2023-04-27T09:42:24.953Z,11.13
2023-04-27T09:44:55.711Z,11.02
2023-04-27T09:47:31.950Z,11.03
2023-04-27T09:50:01.690Z,11.05
2023-04-27T09:52:29.174Z,11.19
2023-04-27T09:54:58.560Z,11.29
2023-04-27T09:57:36.722Z,11.18
2023-04-27T10:00:17.348Z,11.15
2023-04-27T10:02:59.991Z,11.11
2023-04-27T10:05:38.287Z,11.02
2023-04-27T10:08:06.885Z,10.94
2023-04-27T10:10:44.039Z,10.92
2023-04-27T10:13:22.379Z,10.93
2023-04-27T10:15:49.779Z,11.01
2023-04-27T10:18:29.113Z,10.90
2023-04-27T10:20:56.450Z,10.93
2023-04-27T10:23:27.593Z,10.88
2023-04-27T10:25:57.426Z,10.90
2023-04-27T10:28:26.283Z,10.89
2023-04-27T10:30:53.371Z,10.92
2023-04-27T10:33:22.865Z,10.87
2023-04-27T10:36:00.677Z,10.96
2023-04-27T10:38:33.202Z,11.08
2023-04-27T10:41:34.628Z,11.16
2023-04-27T10:47:38.702Z,11.25
2023-04-27T10:50:07.948Z,11.33
2023-04-27T10:52:34.922Z,11.39
2023-04-27T10:55:22.793Z,11.37
2023-04-27T10:57:54.712Z,11.50
2023-04-27T11:00:27.536Z,11.65
2023-04-27T11:02:56.265Z,11.60
2023-04-27T11:05:30.029Z,11.62
2023-04-27T11:08:08.469Z,11.70
2023-04-27T11:10:39.350Z,11.72
2023-04-27T11:13:15.579Z,11.69
2023-04-27T11:15:51.825Z,11.77
2023-04-27T11:18:20.917Z,11.77
2023-04-27T11:20:57.625Z,11.83
2023-04-27T11:23:27.051Z,11.76
2023-04-27T11:25:56.016Z,11.71
2023-04-27T11:28:24.517Z,11.60
2023-04-27T11:30:58.721Z,11.35
2023-04-27T11:33:26.557Z,11.33
2023-04-27T11:35:54.109Z,11.60
2023-04-27T11:38:22.870Z,11.64
2023-04-27T11:41:05.342Z,11.67
2023-04-27T11:43:33.151Z,11.60
2023-04-27T11:46:06.530Z,11.64
2023-04-27T11:51:29.486Z,11.36
2023-04-27T11:54:15.765Z,11.27
2023-04-27T11:56:46.590Z,11.28
2023-04-27T12:02:22.914Z,11.39
2023-04-27T12:04:51.090Z,11.44
2023-04-27T12:07:29.454Z,11.43
2023-04-27T12:09:59.486Z,11.42
2023-04-27T12:12:46.949Z,11.48
2023-04-27T12:20:44.664Z,11.38
2023-04-27T12:23:28.884Z,11.34
2023-04-27T12:25:57.787Z,11.49
2023-04-27T12:28:39.963Z,11.52
2023-04-27T12:31:08.544Z,11.53
2023-04-27T12:33:36.348Z,11.55
2023-04-27T12:36:03.993Z,11.65
2023-04-27T12:38:31.015Z,11.60
2023-04-27T12:41:02.201Z,11.40
2023-04-27T12:43:29.218Z,11.43
2023-04-27T12:45:57.012Z,11.59
2023-04-27T12:48:25.576Z,11.72
2023-04-27T12:50:53.159Z,11.71
2023-04-27T12:53:21.832Z,11.67
2023-04-27T12:55:49.370Z,11.68
2023-04-27T12:58:16.456Z,11.71
2023-04-27T13:00:43.916Z,11.61
2023-04-27T13:03:11.355Z,11.52
2023-04-27T13:05:38.929Z,11.58
2023-04-27T13:08:06.056Z,11.53
2023-04-27T13:10:34.491Z,11.51
2023-04-27T13:13:03.465Z,11.60
2023-04-27T13:15:32.234Z,11.63
2023-04-27T13:17:59.961Z,11.73
2023-04-27T13:20:26.942Z,11.84
2023-04-27T13:22:54.648Z,11.99
2023-04-27T13:25:21.876Z,12.15
2023-04-27T13:27:50.235Z,12.24
2023-04-27T13:30:17.430Z,12.32
2023-04-27T13:32:44.929Z,12.35
2023-04-27T13:35:12.433Z,12.33
2023-04-27T13:37:46.748Z,12.27
2023-04-27T13:40:23.662Z,12.12
2023-04-27T13:42:52.202Z,12.03
2023-04-27T13:45:19.372Z,12.07
2023-04-27T13:47:47.178Z,12.10
2023-04-27T13:50:14.529Z,11.91
2023-04-27T13:52:42.024Z,11.86
2023-04-27T13:55:11.237Z,11.87
2023-04-27T13:57:46.467Z,11.89
2023-04-27T14:00:15.764Z,11.87
2023-04-27T14:03:00.647Z,11.80
2023-04-27T14:05:29.190Z,11.69
2023-04-27T14:07:56.380Z,11.57
2023-04-27T14:10:24.160Z,11.59
2023-04-27T14:12:51.280Z,11.63
2023-04-27T14:15:18.739Z,11.70
2023-04-27T14:17:52.425Z,11.57
2023-04-27T14:20:19.776Z,11.60
2023-04-27T14:22:46.913Z,11.57
2023-04-27T14:28:03.409Z,11.65
2023-04-27T14:30:35.252Z,11.56
2023-04-27T14:33:03.090Z,11.50
2023-04-27T14:35:34.522Z,11.50
2023-04-27T14:38:15.264Z,11.45
2023-04-27T14:40:42.719Z,11.46
2023-04-27T14:43:20.739Z,11.45
2023-04-27T14:45:52.865Z,11.36
2023-04-27T14:48:23.544Z,11.27
2023-04-27T14:50:52.797Z,11.22
2023-04-27T14:53:19.808Z,11.18
2023-04-27T14:55:47.525Z,11.28
2023-04-27T14:58:15.597Z,11.32
2023-04-27T15:00:43.562Z,11.38
2023-04-27T15:03:11.071Z,11.31
2023-04-27T15:05:39.561Z,11.27
2023-04-27T15:08:06.615Z,11.25
2023-04-27T15:10:34.051Z,11.26
2023-04-27T15:13:02.700Z,11.15
2023-04-27T15:15:30.222Z,11.08
2023-04-27T15:17:57.477Z,11.05
2023-04-27T15:20:24.903Z,10.95
2023-04-27T15:22:52.486Z,10.88
2023-04-27T15:25:20.008Z,10.82
2023-04-27T15:27:47.174Z,10.82
2023-04-27T15:30:20.094Z,10.83
2023-04-27T15:32:48.248Z,10.83
2023-04-27T15:35:17.048Z,10.82
2023-04-27T15:37:44.346Z,10.83
2023-04-27T15:43:00.070Z,10.73
2023-04-27T15:45:29.284Z,10.65
2023-04-27T15:47:56.496Z,10.64
2023-04-27T15:50:25.500Z,10.64
2023-04-27T15:52:53.259Z,10.64
2023-04-27T15:55:24.724Z,10.57
2023-04-27T15:57:53.745Z,10.59
2023-04-27T16:00:25.165Z,10.60
2023-04-27T16:02:53.473Z,10.53
2023-04-27T16:08:04.326Z,10.56
2023-04-27T16:13:13.431Z,10.50
2023-04-27T16:15:42.004Z,10.49
2023-04-27T16:18:09.554Z,10.43
2023-04-27T16:20:37.305Z,10.41
2023-04-27T16:23:04.823Z,10.40
2023-04-27T16:25:32.277Z,10.39
2023-04-27T16:27:59.890Z,10.34
2023-04-27T16:30:27.803Z,10.34
2023-04-27T16:32:55.626Z,10.33
2023-04-27T16:35:23.422Z,10.29
2023-04-27T16:37:50.833Z,10.27
2023-04-27T16:40:18.423Z,10.27
2023-04-27T16:42:45.601Z,10.26
2023-04-27T16:45:13.168Z,10.25
2023-04-27T16:47:41.241Z,10.26
2023-04-27T16:50:09.144Z,10.25
2023-04-27T16:52:37.732Z,10.24
2023-04-27T16:55:06.082Z,10.23
2023-04-27T16:57:33.232Z,10.21
2023-04-27T17:00:06.265Z,10.20
2023-04-27T17:02:35.065Z,10.21
2023-04-27T17:05:03.457Z,10.22
2023-04-27T17:07:32.982Z,10.17
2023-04-27T17:10:01.567Z,10.21
2023-04-27T17:12:28.595Z,10.20
2023-04-27T17:14:56.495Z,10.16
2023-04-27T17:17:24.951Z,10.17
2023-04-27T17:22:42.436Z,10.16
2023-04-27T17:25:23.888Z,10.13
2023-04-27T17:27:50.977Z,10.10
2023-04-27T17:30:19.047Z,10.11
2023-04-27T17:32:46.206Z,10.10
2023-04-27T17:35:13.623Z,10.07
2023-04-27T17:37:40.830Z,10.07
2023-04-27T17:40:27.036Z,10.07
2023-04-27T17:42:56.681Z,10.06
2023-04-27T17:45:27.680Z,10.06
2023-04-27T17:48:02.599Z,10.05
2023-04-27T17:50:33.954Z,10.04
2023-04-27T17:53:04.093Z,10.00
2023-04-27T17:55:32.008Z,10.00
2023-04-27T17:57:59.876Z,10.01
2023-04-27T18:00:27.475Z,9.96
2023-04-27T18:02:56.536Z,9.97
2023-04-27T18:05:24.104Z,9.95
2023-04-27T18:07:51.688Z,9.96
2023-04-27T18:10:19.309Z,9.93
2023-04-27T18:12:48.516Z,9.93
2023-04-27T18:15:16.248Z,9.89
2023-04-27T18:17:46.127Z,9.89
2023-04-27T18:20:15.389Z,9.87
2023-04-27T18:22:45.274Z,9.87
2023-04-27T18:25:23.851Z,9.87
2023-04-27T18:27:55.440Z,9.84
2023-04-27T18:30:23.283Z,9.86
2023-04-27T18:32:52.666Z,9.84
2023-04-27T18:35:21.349Z,9.83
2023-04-27T18:38:17.040Z,9.81
2023-04-27T18:40:44.965Z,9.82
2023-04-27T18:43:12.028Z,9.78
2023-04-27T18:45:39.417Z,9.78
2023-04-27T18:48:07.008Z,9.77
2023-04-27T18:50:45.509Z,9.77
2023-04-27T18:53:14.296Z,9.77
2023-04-27T18:55:42.522Z,9.71
2023-04-27T18:58:10.955Z,9.71
2023-04-27T19:00:38.664Z,9.69
2023-04-27T19:03:15.335Z,9.70
2023-04-27T19:05:43.363Z,9.68
2023-04-27T19:08:10.748Z,9.67
2023-04-27T19:10:41.393Z,9.66
2023-04-27T19:13:08.918Z,9.65
2023-04-27T19:15:36.576Z,9.65
2023-04-27T19:18:10.537Z,9.62
2023-04-27T19:20:42.936Z,9.60
2023-04-27T19:23:13.389Z,9.59
2023-04-27T19:25:43.883Z,9.60
2023-04-27T19:28:13.834Z,9.57
2023-04-27T19:30:41.400Z,9.58
2023-04-27T19:33:08.546Z,9.55
2023-04-27T19:35:36.404Z,9.55
2023-04-27T19:38:04.064Z,9.56
2023-04-27T19:40:32.914Z,9.53
2023-04-27T19:43:21.322Z,9.52
2023-04-27T19:46:13.081Z,9.50
2023-04-27T19:51:27.858Z,9.49
2023-04-27T19:53:57.466Z,9.48
2023-04-27T19:56:24.998Z,9.47
2023-04-27T19:58:53.234Z,9.46
2023-04-27T20:01:22.999Z,9.45
2023-04-27T20:03:53.770Z,9.45
2023-04-27T20:06:23.390Z,9.41
2023-04-27T20:08:54.920Z,9.40
2023-04-27T20:11:22.316Z,9.36
2023-04-27T20:13:49.577Z,9.37
2023-04-27T20:16:18.442Z,9.34
2023-04-27T20:18:45.575Z,9.35
2023-04-27T20:21:13.014Z,9.31
2023-04-27T20:23:40.412Z,9.33
2023-04-27T20:26:07.670Z,9.31
2023-04-27T20:28:38.234Z,9.30
2023-04-27T20:31:07.726Z,9.29
2023-04-27T20:33:44.865Z,9.27
2023-04-27T20:36:18.207Z,9.25
2023-04-27T20:38:46.832Z,9.27
2023-04-27T20:41:14.484Z,9.24
2023-04-27T20:43:41.602Z,9.24
2023-04-27T20:46:11.212Z,9.22
2023-04-27T20:48:38.389Z,9.20
2023-04-27T20:51:08.894Z,9.21
2023-04-27T20:53:35.919Z,9.20
2023-04-27T20:56:03.983Z,9.18
2023-04-27T20:58:31.233Z,9.19
2023-04-27T21:01:01.601Z,9.20
2023-04-27T21:03:43.203Z,9.15
2023-04-27T21:06:10.867Z,9.16
2023-04-27T21:08:41.484Z,9.12
2023-04-27T21:11:09.923Z,9.10
2023-04-27T21:13:36.920Z,9.11
2023-04-27T21:16:04.440Z,9.10
2023-04-27T21:18:31.681Z,9.08
2023-04-27T21:20:59.330Z,9.08
2023-04-27T21:23:28.471Z,9.06
2023-04-27T21:25:56.579Z,9.05
2023-04-27T21:28:23.636Z,9.05
2023-04-27T21:30:51.272Z,9.05
2023-04-27T21:33:18.458Z,9.04
2023-04-27T21:35:45.876Z,9.03
2023-04-27T21:38:12.893Z,9.03
2023-04-27T21:40:40.268Z,9.02
2023-04-27T21:43:08.120Z,8.98
2023-04-27T21:45:36.214Z,8.98
2023-04-27T21:48:04.778Z,8.98
2023-04-27T21:50:33.957Z,8.95
2023-04-27T21:53:16.758Z,8.95
2023-04-27T21:55:46.189Z,8.93
2023-04-27T21:58:17.813Z,8.91
2023-04-27T22:00:54.409Z,8.87
2023-04-27T22:03:31.310Z,8.88
2023-04-27T22:05:59.479Z,8.83
2023-04-27T22:08:26.779Z,8.82
2023-04-27T22:10:54.268Z,8.79
2023-04-27T22:16:04.389Z,8.70
2023-04-27T22:18:31.556Z,8.70
2023-04-27T22:20:59.025Z,8.68
2023-04-27T22:23:26.486Z,8.65
2023-04-27T22:25:53.908Z,8.66
2023-04-27T22:28:21.085Z,8.64
2023-04-27T22:30:48.723Z,8.63
2023-04-27T22:33:16.798Z,8.63
2023-04-27T22:35:44.970Z,8.64
2023-04-27T22:38:12.036Z,8.64
2023-04-27T22:40:39.569Z,8.63
2023-04-27T22:43:06.581Z,8.62
2023-04-27T22:45:34.500Z,8.60
2023-04-27T22:48:02.795Z,8.60
2023-04-27T22:50:30.193Z,8.61
2023-04-27T22:52:57.189Z,8.61
2023-04-27T22:55:32.835Z,8.60
2023-04-27T22:58:00.651Z,8.60
2023-04-27T23:00:43.077Z,8.56
2023-04-27T23:03:11.859Z,8.55
2023-04-27T23:05:39.042Z,8.55
2023-04-27T23:08:06.934Z,8.56
2023-04-27T23:10:34.919Z,8.56
2023-04-27T23:13:03.385Z,8.56
2023-04-27T23:15:30.403Z,8.56
2023-04-27T23:17:57.880Z,8.54
2023-04-27T23:20:28.757Z,8.52
2023-04-27T23:22:56.948Z,8.53
2023-04-27T23:25:24.375Z,8.51
2023-04-27T23:27:52.767Z,8.49
2023-04-27T23:30:22.585Z,8.48
2023-04-27T23:32:50.519Z,8.46
2023-04-27T23:35:18.880Z,8.47
2023-04-27T23:37:46.499Z,8.46
2023-04-27T23:40:14.147Z,8.48
2023-04-27T23:42:41.625Z,8.49
2023-04-27T23:45:09.192Z,8.48
2023-04-27T23:47:37.144Z,8.49
2023-04-27T23:50:04.870Z,8.48
2023-04-27T23:52:32.269Z,8.49
2023-04-27T23:54:59.214Z,8.49
2023-04-27T23:57:26.551Z,8.50
2023-04-27T23:59:53.600Z,8.50
